createdAt,value
2019-05-07T00:01:23.309Z,7.50
2019-05-07T00:03:53.292Z,7.40
2019-05-07T00:06:23.252Z,7.30
2019-05-07T00:08:53.023Z,7.30
2019-05-07T00:11:22.824Z,7.30
2019-05-07T00:13:53.636Z,7.20
2019-05-07T00:16:23.490Z,7.30
2019-05-07T00:18:53.292Z,7.20
2019-05-07T00:21:23.484Z,7.10
2019-05-07T00:23:53.276Z,7.00
2019-05-07T00:26:22.969Z,7.10
2019-05-07T00:28:52.886Z,7.10
2019-05-07T00:31:23.244Z,7.00
2019-05-07T00:33:53.243Z,7.10
2019-05-07T00:36:42.216Z,7.10
2019-05-07T00:39:22.643Z,7.10
2019-05-07T00:41:59.331Z,7.10
2019-05-07T00:44:29.845Z,7.00
2019-05-07T00:47:02.092Z,6.90
2019-05-07T00:49:33.166Z,6.90
2019-05-07T00:52:03.088Z,6.80
2019-05-07T00:54:32.897Z,6.80
2019-05-07T00:57:03.339Z,6.80
2019-05-07T00:59:34.019Z,6.70
2019-05-07T01:02:03.776Z,6.70
2019-05-07T01:04:33.483Z,6.70
2019-05-07T01:07:03.321Z,6.70
2019-05-07T01:09:43.103Z,6.70
2019-05-07T01:12:12.983Z,6.70
2019-05-07T01:14:43.795Z,6.70
2019-05-07T01:17:13.702Z,6.70
2019-05-07T01:19:43.543Z,6.70
2019-05-07T01:22:13.232Z,6.70
2019-05-07T01:24:43.436Z,6.60
2019-05-07T01:27:13.247Z,6.60
2019-05-07T01:29:43.086Z,6.60
2019-05-07T01:32:30.487Z,6.50
2019-05-07T01:35:06.817Z,6.50
2019-05-07T01:37:36.556Z,6.50
2019-05-07T01:40:12.104Z,6.50
2019-05-07T01:42:42.512Z,6.40
2019-05-07T01:45:24.850Z,6.40
2019-05-07T01:47:54.869Z,6.30
2019-05-07T01:50:24.623Z,6.30
2019-05-07T01:52:54.344Z,6.40
2019-05-07T01:55:24.102Z,6.30
2019-05-07T01:57:53.803Z,6.30
2019-05-07T02:00:24.027Z,6.40
2019-05-07T02:02:59.795Z,6.30
2019-05-07T02:05:46.180Z,6.30
2019-05-07T02:08:22.222Z,6.30
2019-05-07T02:11:02.088Z,6.20
2019-05-07T02:13:33.817Z,6.20
2019-05-07T02:16:04.238Z,6.30
2019-05-07T02:18:34.270Z,6.40
2019-05-07T02:21:04.123Z,6.40
2019-05-07T02:23:33.886Z,6.30
2019-05-07T02:26:03.740Z,6.40
2019-05-07T02:28:33.588Z,6.40
2019-05-07T02:31:04.107Z,6.40
2019-05-07T02:33:35.133Z,6.30
2019-05-07T02:36:04.304Z,6.40
2019-05-07T02:38:48.300Z,6.40
2019-05-07T02:41:23.417Z,6.50
2019-05-07T02:43:53.725Z,6.40
2019-05-07T02:46:32.940Z,6.50
2019-05-07T02:49:13.505Z,6.50
2019-05-07T02:51:53.139Z,6.40
2019-05-07T02:54:32.909Z,6.50
2019-05-07T02:57:03.581Z,6.40
2019-05-07T02:59:33.837Z,6.40
2019-05-07T03:02:03.916Z,6.40
2019-05-07T03:04:33.606Z,6.30
2019-05-07T03:07:04.080Z,6.40
2019-05-07T03:09:33.785Z,6.30
2019-05-07T03:12:04.117Z,6.30
2019-05-07T03:14:33.921Z,6.30
2019-05-07T03:17:03.812Z,6.20
2019-05-07T03:19:35.303Z,6.10
2019-05-07T03:22:05.158Z,6.10
2019-05-07T03:24:46.855Z,5.90
2019-05-07T03:27:16.586Z,5.90
2019-05-07T03:29:54.093Z,6.00
2019-05-07T03:32:37.867Z,6.00
2019-05-07T03:35:27.989Z,5.90
2019-05-07T03:37:58.187Z,5.80
2019-05-07T03:40:28.898Z,5.80
2019-05-07T03:43:01.845Z,5.70
2019-05-07T03:45:58.065Z,5.70
2019-05-07T03:48:28.860Z,5.80
2019-05-07T03:50:58.539Z,5.90
2019-05-07T03:53:28.329Z,5.80
2019-05-07T03:55:58.205Z,5.70
2019-05-07T03:58:27.995Z,4.80
2019-05-07T04:01:03.929Z,5.70
2019-05-07T04:03:34.144Z,5.80
2019-05-07T04:06:03.995Z,5.80
2019-05-07T04:08:33.969Z,5.80
2019-05-07T04:11:04.184Z,5.80
2019-05-07T04:13:34.126Z,5.80
2019-05-07T04:16:04.446Z,5.90
2019-05-07T04:18:34.395Z,5.80
2019-05-07T04:21:04.426Z,5.80
2019-05-07T04:23:34.641Z,5.90
2019-05-07T04:26:16.328Z,5.90
2019-05-07T04:29:06.600Z,6.00
2019-05-07T04:31:43.027Z,5.90
2019-05-07T04:34:23.775Z,6.10
2019-05-07T04:36:53.471Z,6.00
2019-05-07T04:39:23.554Z,5.90
2019-05-07T04:42:05.442Z,5.90
2019-05-07T04:44:39.303Z,5.90
2019-05-07T04:47:08.936Z,6.00
2019-05-07T04:49:38.518Z,5.90
2019-05-07T04:52:15.371Z,5.90
2019-05-07T04:54:45.240Z,5.90
2019-05-07T04:57:26.932Z,5.90
2019-05-07T04:59:58.537Z,5.90
2019-05-07T05:02:46.013Z,5.90
2019-05-07T05:05:16.500Z,5.90
2019-05-07T05:07:46.108Z,5.90
2019-05-07T05:10:15.692Z,5.90
2019-05-07T05:12:46.351Z,6.00
2019-05-07T05:15:15.956Z,6.00
2019-05-07T05:17:50.929Z,6.00
2019-05-07T05:20:22.195Z,6.10
2019-05-07T05:23:07.187Z,6.10
2019-05-07T05:25:43.281Z,6.20
2019-05-07T05:28:16.653Z,6.30
2019-05-07T05:30:55.839Z,6.30
2019-05-07T05:33:25.427Z,6.40
2019-05-07T05:35:55.015Z,6.40
2019-05-07T05:38:24.583Z,6.40
2019-05-07T05:40:55.984Z,6.50
2019-05-07T05:43:52.838Z,6.50
2019-05-07T05:46:24.633Z,6.60
2019-05-07T05:48:56.741Z,6.60
2019-05-07T05:51:48.053Z,6.70
2019-05-07T05:54:37.050Z,6.70
2019-05-07T05:57:25.820Z,6.80
2019-05-07T06:03:27.380Z,6.90
2019-05-07T06:06:03.771Z,7.00
2019-05-07T06:08:52.509Z,7.10
2019-05-07T06:11:38.339Z,7.10
2019-05-07T06:14:13.037Z,7.10
2019-05-07T06:16:56.520Z,7.20
2019-05-07T06:19:38.586Z,7.30
2019-05-07T06:22:39.647Z,7.40
2019-05-07T06:25:16.225Z,7.40
2019-05-07T06:27:45.906Z,7.40
2019-05-07T06:30:16.826Z,7.40
2019-05-07T06:32:45.718Z,7.50
2019-05-07T06:35:19.331Z,7.70
2019-05-07T06:37:48.882Z,7.70
2019-05-07T06:40:46.864Z,7.80
2019-05-07T06:43:42.048Z,7.90
2019-05-07T06:46:12.521Z,8.00
2019-05-07T06:48:45.940Z,8.10
2019-05-07T06:51:17.669Z,8.10
2019-05-07T06:53:47.784Z,8.20
2019-05-07T06:56:45.431Z,8.20
2019-05-07T06:59:22.516Z,8.30
2019-05-07T07:02:05.343Z,8.40
2019-05-07T07:04:52.098Z,8.50
2019-05-07T07:07:37.027Z,8.50
2019-05-07T07:10:26.877Z,8.60
2019-05-07T07:12:56.687Z,8.60
2019-05-07T07:15:26.658Z,8.70
2019-05-07T07:18:02.982Z,8.80
2019-05-07T07:20:32.735Z,8.80
2019-05-07T07:23:02.504Z,8.90
2019-05-07T07:25:32.703Z,8.90
2019-05-07T07:28:04.590Z,9.00
2019-05-07T07:30:42.079Z,9.10
2019-05-07T07:33:12.230Z,9.10
2019-05-07T07:35:42.828Z,9.10
2019-05-07T07:38:32.670Z,9.20
2019-05-07T07:41:13.730Z,9.20
2019-05-07T07:43:43.351Z,9.30
2019-05-07T07:46:18.810Z,9.40
2019-05-07T07:49:03.179Z,9.40
2019-05-07T07:51:34.300Z,9.50
2019-05-07T07:53:55.919Z,9.60
2019-05-07T07:57:02.382Z,9.70
2019-05-07T07:59:53.998Z,9.70
2019-05-07T08:02:42.441Z,9.80
2019-05-07T08:05:12.667Z,9.90
2019-05-07T08:07:42.770Z,10.10
2019-05-07T08:10:13.025Z,10.20
2019-05-07T08:12:43.003Z,10.30
2019-05-07T08:15:18.055Z,10.40
2019-05-07T08:18:13.768Z,10.40
2019-05-07T08:20:53.666Z,10.50
2019-05-07T08:23:24.189Z,10.70
2019-05-07T08:25:57.267Z,10.70
2019-05-07T08:28:32.250Z,10.70
2019-05-07T08:31:26.568Z,10.80
2019-05-07T08:34:15.386Z,10.90
2019-05-07T08:36:46.293Z,10.90
2019-05-07T08:39:15.720Z,10.90
2019-05-07T08:41:49.529Z,11.00
2019-05-07T08:44:22.305Z,11.00
2019-05-07T08:47:23.455Z,11.10
2019-05-07T08:49:52.476Z,11.20
2019-05-07T08:52:23.405Z,11.10
2019-05-07T08:54:54.329Z,11.10
2019-05-07T08:57:24.585Z,11.10
2019-05-07T09:00:00.861Z,11.10
2019-05-07T09:02:26.774Z,11.00
2019-05-07T09:04:56.780Z,11.10
2019-05-07T09:07:26.582Z,11.10
2019-05-07T09:09:56.198Z,11.10
2019-05-07T09:12:25.766Z,11.00
2019-05-07T09:14:57.456Z,10.90
2019-05-07T09:17:26.983Z,11.10
2019-05-07T09:19:56.643Z,11.20
2019-05-07T09:22:26.293Z,11.30
2019-05-07T09:24:55.851Z,11.40
2019-05-07T09:27:37.759Z,11.50
2019-05-07T09:30:52.557Z,11.50
2019-05-07T09:33:39.265Z,11.70
2019-05-07T09:36:22.809Z,11.90
2019-05-07T09:38:56.947Z,11.90
2019-05-07T09:41:32.693Z,12.00
2019-05-07T09:44:03.153Z,12.00
2019-05-07T09:46:33.987Z,12.10
2019-05-07T09:49:03.565Z,12.10
2019-05-07T09:51:33.248Z,12.20
2019-05-07T09:54:02.850Z,12.30
2019-05-07T09:56:32.465Z,12.30
2019-05-07T09:59:02.298Z,12.30
2019-05-07T10:01:32.152Z,12.40
2019-05-07T10:04:02.621Z,12.40
2019-05-07T10:06:33.420Z,12.40
2019-05-07T10:09:03.181Z,12.40
2019-05-07T10:11:39.439Z,12.50
2019-05-07T10:14:12.395Z,12.60
2019-05-07T10:17:02.740Z,12.70
2019-05-07T10:19:33.726Z,12.80
2019-05-07T10:22:12.450Z,12.90
2019-05-07T10:24:43.607Z,13.00
2019-05-07T10:27:14.393Z,13.00
2019-05-07T10:29:44.937Z,13.10
2019-05-07T10:32:15.562Z,13.20
2019-05-07T10:34:45.166Z,13.20
2019-05-07T10:37:14.817Z,13.10
2019-05-07T10:39:44.539Z,13.20
2019-05-07T10:42:14.251Z,13.20
2019-05-07T10:44:52.435Z,13.20
2019-05-07T10:47:44.174Z,13.20
2019-05-07T10:50:38.020Z,13.30
2019-05-07T10:52:57.823Z,13.40
2019-05-07T10:55:27.412Z,13.50
2019-05-07T10:57:57.063Z,13.50
2019-05-07T11:00:27.295Z,13.60
2019-05-07T11:02:56.930Z,13.60
2019-05-07T11:05:26.599Z,13.70
2019-05-07T11:07:56.599Z,13.70
2019-05-07T11:10:26.433Z,13.80
2019-05-07T11:12:56.264Z,13.90
2019-05-07T11:15:28.261Z,13.90
2019-05-07T11:18:08.233Z,13.90
2019-05-07T11:20:47.414Z,14.00
2019-05-07T11:23:13.211Z,14.20
2019-05-07T11:25:43.590Z,14.30
2019-05-07T11:28:16.381Z,14.40
2019-05-07T11:30:46.122Z,14.50
2019-05-07T11:33:15.771Z,14.60
2019-05-07T11:35:49.470Z,14.80
2019-05-07T11:38:22.275Z,14.90
2019-05-07T11:40:51.770Z,15.00
2019-05-07T11:43:46.373Z,15.10
2019-05-07T11:46:22.093Z,15.30
2019-05-07T11:49:11.554Z,15.50
2019-05-07T11:51:51.699Z,15.70
2019-05-07T11:54:21.339Z,15.80
2019-05-07T11:56:58.345Z,15.90
2019-05-07T11:59:27.955Z,16.10
2019-05-07T12:02:02.121Z,16.10
2019-05-07T12:04:32.105Z,16.00
2019-05-07T12:07:02.568Z,16.20
2019-05-07T12:09:33.260Z,16.30
2019-05-07T12:12:03.008Z,16.50
2019-05-07T12:14:34.955Z,16.70
2019-05-07T12:17:03.887Z,16.90
2019-05-07T12:19:35.694Z,17.20
2019-05-07T12:22:06.377Z,17.30
2019-05-07T12:24:36.084Z,17.50
2019-05-07T12:27:05.635Z,17.60
2019-05-07T12:29:35.182Z,17.80
2019-05-07T12:32:18.547Z,17.90
2019-05-07T12:34:52.651Z,18.10
2019-05-07T12:37:22.506Z,18.10
2019-05-07T12:39:52.766Z,18.00
2019-05-07T12:42:22.484Z,17.90
2019-05-07T12:44:53.134Z,17.90
2019-05-07T12:47:22.673Z,17.90
2019-05-07T12:49:52.382Z,18.10
2019-05-07T12:52:26.247Z,18.20
2019-05-07T12:55:03.228Z,18.40
2019-05-07T12:57:42.153Z,18.50
2019-05-07T13:00:29.631Z,18.70
2019-05-07T13:03:24.327Z,18.80
2019-05-07T13:05:54.013Z,18.80
2019-05-07T13:08:23.610Z,18.80
2019-05-07T13:10:53.244Z,18.80
2019-05-07T13:13:23.095Z,18.90
2019-05-07T13:15:54.449Z,19.00
2019-05-07T13:18:24.460Z,19.00
2019-05-07T13:20:55.350Z,19.10
2019-05-07T13:23:24.944Z,19.20
2019-05-07T13:25:54.521Z,19.10
2019-05-07T13:28:24.171Z,19.00
2019-05-07T13:30:53.786Z,19.00
2019-05-07T13:33:31.628Z,19.10
2019-05-07T13:36:02.304Z,19.10
2019-05-07T13:38:37.966Z,19.20
2019-05-07T13:41:14.983Z,19.30
2019-05-07T13:44:03.069Z,19.40
2019-05-07T13:46:33.397Z,19.50
2019-05-07T13:49:03.011Z,19.60
2019-05-07T13:51:33.987Z,19.80
2019-05-07T13:54:03.872Z,19.80
2019-05-07T13:56:33.483Z,19.70
2019-05-07T13:59:05.029Z,19.60
2019-05-07T14:01:41.144Z,19.40
2019-05-07T14:04:12.749Z,19.40
2019-05-07T14:06:43.278Z,19.30
2019-05-07T14:09:28.058Z,19.20
2019-05-07T14:11:57.889Z,19.10
2019-05-07T14:14:27.554Z,19.10
2019-05-07T14:16:57.288Z,19.00
2019-05-07T14:19:26.925Z,19.00
2019-05-07T14:21:56.543Z,19.00
2019-05-07T14:24:26.288Z,18.90
2019-05-07T14:26:56.148Z,18.80
2019-05-07T14:29:26.689Z,18.90
2019-05-07T14:32:04.030Z,19.00
2019-05-07T14:34:36.091Z,19.00
2019-05-07T14:37:22.513Z,19.20
2019-05-07T14:39:52.231Z,19.30
2019-05-07T14:42:28.960Z,19.50
2019-05-07T14:44:58.579Z,19.70
2019-05-07T14:47:28.191Z,19.90
2019-05-07T14:49:57.847Z,20.00
2019-05-07T14:52:36.193Z,20.20
2019-05-07T14:55:06.588Z,20.30
2019-05-07T14:57:36.235Z,20.50
2019-05-07T15:00:06.285Z,20.60
2019-05-07T15:02:36.983Z,20.70
2019-05-07T15:05:07.886Z,20.80
2019-05-07T15:07:38.499Z,20.90
2019-05-07T15:10:08.203Z,21.00
2019-05-07T15:12:37.847Z,21.10
2019-05-07T15:15:07.588Z,21.30
2019-05-07T15:17:44.642Z,21.40
2019-05-07T15:20:16.394Z,21.40
2019-05-07T15:22:57.415Z,21.60
2019-05-07T15:25:28.005Z,21.60
2019-05-07T15:27:58.739Z,21.70
2019-05-07T15:30:33.892Z,21.70
2019-05-07T15:33:03.501Z,21.80
2019-05-07T15:35:33.148Z,21.90
2019-05-07T15:38:04.907Z,21.90
2019-05-07T15:40:34.506Z,22.00
2019-05-07T15:43:04.228Z,22.10
2019-05-07T15:45:33.832Z,22.10
2019-05-07T15:48:04.479Z,22.10
2019-05-07T15:50:34.065Z,22.10
2019-05-07T15:53:25.726Z,22.10
2019-05-07T15:55:55.379Z,22.10
2019-05-07T15:58:26.571Z,22.00
2019-05-07T16:00:58.163Z,22.00
2019-05-07T16:03:38.135Z,22.00
2019-05-07T16:06:07.824Z,22.10
2019-05-07T16:08:42.875Z,22.10
2019-05-07T16:11:15.865Z,22.10
2019-05-07T16:13:52.444Z,22.10
2019-05-07T16:16:23.573Z,22.10
2019-05-07T16:19:06.075Z,22.10
2019-05-07T16:21:35.833Z,22.10
2019-05-07T16:24:05.914Z,22.10
2019-05-07T16:26:35.775Z,22.00
2019-05-07T16:32:32.810Z,22.00
2019-05-07T16:35:32.098Z,21.90
2019-05-07T16:38:02.047Z,21.80
2019-05-07T16:40:32.446Z,21.70
2019-05-07T16:43:03.765Z,21.70
2019-05-07T16:45:43.722Z,21.70
2019-05-07T16:48:18.260Z,21.50
2019-05-07T16:51:12.670Z,21.30
2019-05-07T16:53:45.159Z,21.30
2019-05-07T16:56:17.103Z,21.30
2019-05-07T17:02:15.835Z,21.20
2019-05-07T17:05:07.523Z,21.10
2019-05-07T17:07:42.701Z,20.90
2019-05-07T17:10:12.432Z,20.90
2019-05-07T17:12:43.766Z,20.80
2019-05-07T17:15:13.497Z,20.70
2019-05-07T17:17:43.407Z,20.50
2019-05-07T17:20:13.279Z,20.50
2019-05-07T17:22:43.986Z,20.30
2019-05-07T17:25:33.405Z,20.20
2019-05-07T17:28:03.109Z,20.00
2019-05-07T17:30:32.848Z,19.70
2019-05-07T17:33:02.432Z,19.50
2019-05-07T17:35:34.403Z,19.40
2019-05-07T17:38:09.002Z,19.30
2019-05-07T17:40:36.310Z,19.10
2019-05-07T17:43:05.968Z,19.10
2019-05-07T17:45:37.675Z,19.00
2019-05-07T17:48:07.496Z,18.90
2019-05-07T17:50:42.971Z,18.70
2019-05-07T17:53:13.643Z,18.60
2019-05-07T17:55:43.285Z,18.40
2019-05-07T17:58:13.061Z,18.30
2019-05-07T18:00:44.280Z,18.10
2019-05-07T18:03:33.119Z,17.90
2019-05-07T18:06:05.924Z,17.80
2019-05-07T18:08:36.629Z,17.60
2019-05-07T18:11:17.434Z,17.40
2019-05-07T18:13:37.910Z,17.30
2019-05-07T18:16:24.391Z,17.20
2019-05-07T18:18:55.112Z,17.10
2019-05-07T18:21:26.967Z,16.90
2019-05-07T18:24:11.257Z,16.90
2019-05-07T18:26:30.914Z,16.70
2019-05-07T18:29:02.455Z,16.60
2019-05-07T18:31:48.995Z,16.60
2019-05-07T18:34:18.928Z,16.50
2019-05-07T18:36:49.936Z,16.30
2019-05-07T18:39:20.682Z,16.20
2019-05-07T18:41:52.423Z,16.10
2019-05-07T18:44:23.275Z,16.10
2019-05-07T18:46:52.890Z,16.00
2019-05-07T18:49:22.677Z,15.90
2019-05-07T18:51:52.343Z,15.90
2019-05-07T18:54:30.292Z,15.80
2019-05-07T18:56:53.575Z,15.80
2019-05-07T18:59:27.892Z,15.70
2019-05-07T19:01:57.715Z,15.60
2019-05-07T19:04:30.100Z,15.60
2019-05-07T19:06:58.871Z,15.50
2019-05-07T19:09:28.704Z,15.40
2019-05-07T19:11:59.445Z,15.40
2019-05-07T19:14:28.578Z,15.40
2019-05-07T19:16:58.280Z,15.30
2019-05-07T19:19:27.922Z,15.30
2019-05-07T19:21:57.755Z,15.40
2019-05-07T19:24:40.822Z,15.30
2019-05-07T19:26:58.788Z,15.30
2019-05-07T19:29:29.372Z,15.20
2019-05-07T19:31:59.103Z,15.20
2019-05-07T19:34:32.474Z,15.10
2019-05-07T19:37:02.674Z,15.00
2019-05-07T19:39:33.556Z,14.80
2019-05-07T19:42:03.434Z,14.70
2019-05-07T19:44:38.256Z,14.60
2019-05-07T19:47:07.866Z,14.50
2019-05-07T19:49:38.623Z,14.50
2019-05-07T19:52:08.513Z,14.40
2019-05-07T19:55:00.436Z,14.40
2019-05-07T19:57:26.550Z,14.30
2019-05-07T19:59:57.183Z,14.20
2019-05-07T20:02:32.149Z,14.20
2019-05-07T20:05:03.527Z,14.20
2019-05-07T20:07:33.376Z,14.10
2019-05-07T20:10:03.084Z,14.10
2019-05-07T20:12:32.820Z,14.10
2019-05-07T20:15:05.836Z,14.00
2019-05-07T20:17:37.746Z,14.00
2019-05-07T20:20:09.464Z,13.90
2019-05-07T20:22:40.195Z,13.80
2019-05-07T20:25:16.394Z,13.80
2019-05-07T20:27:42.179Z,13.70
2019-05-07T20:30:12.909Z,13.70
2019-05-07T20:32:44.648Z,13.70
2019-05-07T20:35:16.277Z,13.60
2019-05-07T20:37:45.939Z,13.60
2019-05-07T20:40:17.147Z,13.50
2019-05-07T20:42:46.715Z,13.60
2019-05-07T20:45:16.232Z,13.50
2019-05-07T20:47:45.959Z,13.40
2019-05-07T20:50:15.559Z,13.40
2019-05-07T20:52:47.772Z,13.30
2019-05-07T20:55:33.213Z,13.30
2019-05-07T20:58:00.240Z,13.20
2019-05-07T21:00:32.594Z,13.10
2019-05-07T21:03:23.813Z,13.00
2019-05-07T21:05:53.372Z,13.00
2019-05-07T21:08:23.212Z,13.00
2019-05-07T21:10:53.807Z,13.00
2019-05-07T21:13:30.910Z,12.90
2019-05-07T21:15:54.981Z,12.90
2019-05-07T21:18:24.586Z,12.90
2019-05-07T21:20:54.182Z,12.80
2019-05-07T21:23:23.778Z,12.70
2019-05-07T21:25:53.419Z,12.70
2019-05-07T21:28:23.210Z,12.70
2019-05-07T21:30:52.854Z,12.70
2019-05-07T21:33:22.990Z,12.70
2019-05-07T21:35:52.685Z,12.80
2019-05-07T21:38:22.636Z,12.80
2019-05-07T21:40:52.310Z,12.70
2019-05-07T21:43:22.971Z,12.70
2019-05-07T21:45:53.617Z,12.70
2019-05-07T21:48:23.214Z,12.60
2019-05-07T21:50:54.575Z,12.70
2019-05-07T21:53:29.614Z,12.90
2019-05-07T21:56:22.845Z,12.50
2019-05-07T21:59:03.012Z,12.50
2019-05-07T22:01:36.363Z,12.50
2019-05-07T22:04:06.003Z,12.40
2019-05-07T22:06:35.573Z,12.20
2019-05-07T22:09:07.432Z,12.20
2019-05-07T22:11:37.113Z,12.30
2019-05-07T22:14:06.718Z,12.30
2019-05-07T22:16:36.347Z,12.30
2019-05-07T22:19:06.122Z,12.70
2019-05-07T22:21:35.702Z,12.20
2019-05-07T22:24:05.335Z,12.20
2019-05-07T22:26:35.032Z,12.10
2019-05-07T22:29:04.558Z,12.10
2019-05-07T22:31:56.470Z,12.10
2019-05-07T22:34:33.477Z,12.10
2019-05-07T22:37:04.402Z,12.00
2019-05-07T22:39:35.576Z,12.00
2019-05-07T22:42:06.743Z,12.00
2019-05-07T22:44:36.395Z,11.90
2019-05-07T22:47:22.708Z,11.80
2019-05-07T22:49:53.572Z,11.90
2019-05-07T22:52:27.300Z,11.80
2019-05-07T22:54:57.020Z,11.90
2019-05-07T22:57:54.693Z,11.80
2019-05-07T23:00:42.534Z,11.90
2019-05-07T23:03:12.409Z,11.80
2019-05-07T23:05:44.979Z,11.70
2019-05-07T23:08:14.829Z,11.70
2019-05-07T23:10:44.669Z,11.70
2019-05-07T23:13:14.319Z,11.70
2019-05-07T23:15:43.936Z,11.60
2019-05-07T23:18:13.536Z,11.60
2019-05-07T23:20:43.075Z,11.50
2019-05-07T23:23:14.217Z,11.40
2019-05-07T23:25:44.001Z,11.40
2019-05-07T23:28:14.615Z,11.50
2019-05-07T23:30:44.412Z,11.40
2019-05-07T23:33:14.046Z,11.40
2019-05-07T23:35:43.589Z,11.40
2019-05-07T23:38:15.913Z,11.40
2019-05-07T23:40:56.069Z,11.40
2019-05-07T23:43:25.653Z,11.30
2019-05-07T23:45:55.283Z,11.30
2019-05-07T23:48:24.936Z,11.30
2019-05-07T23:50:55.536Z,11.30
2019-05-07T23:53:25.160Z,11.30
2019-05-07T23:55:54.730Z,11.30
2019-05-07T23:58:24.356Z,11.40
